Time;durP1;ratioP1;P1;durP2;ratioP2;P2;SDS_P1;SDS_P2;PMS_P1;PMS_P2;Temp;Humidity;BMP_temperature;BMP_pressure;BME280_temperature;BME280_humidity;BME280_pressure;Samples;Min_cycle;Max_cycle;Signal;HPM_P1;HPM_P2
2022/05/27 00:00:24;;;;;;;0.15;0.13;;;14.00;99.90;;;;;;5090687;28;20041;-85
2022/05/27 00:02:52;;;;;;;0.05;0.05;;;14.00;99.90;;;;;;5090641;28;20127;-86
2022/05/27 00:05:19;;;;;;;0.00;0.00;;;14.00;99.90;;;;;;5052272;28;20129;-86
2022/05/27 00:07:46;;;;;;;0.00;0.00;;;14.00;99.90;;;;;;5057459;28;20040;-84
2022/05/27 00:10:14;;;;;;;0.10;0.00;;;14.00;99.90;;;;;;5057355;28;20135;-83
2022/05/27 00:12:40;;;;;;;0.00;0.00;;;14.00;99.90;;;;;;5073507;28;20040;-86
2022/05/27 00:15:08;;;;;;;0.10;0.10;;;14.00;99.90;;;;;;5056479;28;20098;-84
2022/05/27 00:17:35;;;;;;;0.30;0.10;;;14.00;99.90;;;;;;5057832;28;20040;-86
2022/05/27 00:20:02;;;;;;;0.00;0.00;;;14.00;99.90;;;;;;5073326;28;20110;-86
2022/05/27 00:22:29;;;;;;;0.00;0.00;;;14.00;99.90;;;;;;5090712;28;20028;-84
2022/05/27 00:24:56;;;;;;;0.40;0.20;;;14.00;99.90;;;;;;5073736;28;20147;-86
2022/05/27 00:27:22;;;;;;;0.00;0.00;;;14.00;99.90;;;;;;5057287;28;20468;-84
2022/05/27 00:29:49;;;;;;;0.10;0.10;;;14.00;99.90;;;;;;5056899;28;20401;-85
2022/05/27 00:32:15;;;;;;;0.05;0.00;;;13.90;99.90;;;;;;5073710;28;20044;-83
2022/05/27 00:34:42;;;;;;;0.00;0.00;;;13.90;99.90;;;;;;5057000;28;20036;-83
2022/05/27 00:37:09;;;;;;;0.05;0.05;;;13.90;99.90;;;;;;5067282;28;20076;-83
2022/05/27 00:39:38;;;;;;;0.05;0.05;;;13.80;99.90;;;;;;5057646;28;20397;-87
2022/05/27 00:42:06;;;;;;;0.00;0.00;;;13.80;99.90;;;;;;5106440;28;20037;-87
2022/05/27 00:44:33;;;;;;;0.10;0.10;;;13.70;99.90;;;;;;5073552;28;20040;-86
2022/05/27 00:47:07;;;;;;;0.10;0.10;;;13.70;99.90;;;;;;5068117;28;20047;-84
2022/05/27 00:49:49;;;;;;;0.00;0.00;;;13.70;99.90;;;;;;5089830;28;20394;-84
2022/05/27 00:52:19;;;;;;;0.00;0.00;;;13.70;99.90;;;;;;5090027;28;20486;-87
2022/05/27 00:54:45;;;;;;;0.10;0.10;;;13.60;99.90;;;;;;5089617;28;20040;-83
2022/05/27 00:57:19;;;;;;;0.00;0.00;;;13.60;99.90;;;;;;5058493;28;20067;-86
2022/05/27 01:00:07;;;;;;;0.00;0.00;;;13.50;99.90;;;;;;5053448;28;20037;-87
2022/05/27 01:02:35;;;;;;;0.00;0.00;;;13.50;99.90;;;;;;5070772;28;20450;-83
2022/05/27 01:05:05;;;;;;;0.10;0.10;;;13.40;99.90;;;;;;5069332;28;20405;-84
2022/05/27 01:07:35;;;;;;;0.00;0.00;;;13.40;99.90;;;;;;5069811;28;20102;-83
2022/05/27 01:10:06;;;;;;;0.00;0.00;;;13.30;99.90;;;;;;5053021;28;20037;-83
2022/05/27 01:12:45;;;;;;;0.35;0.10;;;13.30;99.90;;;;;;5069464;28;20560;-87
2022/05/27 01:15:34;;;;;;;0.10;0.10;;;13.30;99.90;;;;;;5053675;28;20075;-87
2022/05/27 01:18:12;;;;;;;0.10;0.10;;;13.20;99.90;;;;;;5069512;28;20087;-86
2022/05/27 01:21:01;;;;;;;0.35;0.10;;;13.20;99.90;;;;;;5052859;28;20544;-83
2022/05/27 01:23:37;;;;;;;0.00;0.00;;;13.20;99.90;;;;;;5069458;28;20044;-87
2022/05/27 01:26:10;;;;;;;;;;;13.10;99.90;;;;;;5056604;28;20048;-86
2022/05/27 01:28:57;;;;;;;0.00;0.00;;;13.10;99.90;;;;;;5085566;28;20006;-87
2022/05/27 01:31:46;;;;;;;0.00;0.00;;;13.10;99.90;;;;;;5077031;28;20127;-87
2022/05/27 01:34:19;;;;;;;0.00;0.00;;;13.00;99.90;;;;;;5076328;28;20055;-87
2022/05/27 01:36:53;;;;;;;0.10;0.10;;;13.00;99.90;;;;;;5076429;28;20053;-87
2022/05/27 01:39:32;;;;;;;0.10;0.10;;;13.00;99.90;;;;;;5087665;28;20106;-87
2022/05/27 01:42:20;;;;;;;0.00;0.00;;;13.00;99.90;;;;;;5092919;28;20036;-86
2022/05/27 01:45:07;;;;;;;0.15;0.13;;;12.90;99.90;;;;;;5093215;28;20090;-83
2022/05/27 01:47:55;;;;;;;0.00;0.00;;;12.90;99.90;;;;;;5092796;28;20831;-84
2022/05/27 01:50:37;;;;;;;0.10;0.10;;;12.90;99.90;;;;;;5092974;28;20051;-87
2022/05/27 01:53:26;;;;;;;0.00;0.00;;;12.90;99.90;;;;;;5092730;28;20780;-83
2022/05/27 01:55:58;;;;;;;0.10;0.10;;;13.00;99.90;;;;;;5092392;28;20052;-83
2022/05/27 01:58:41;;;;;;;0.00;0.00;;;12.90;99.90;;;;;;5093086;28;20072;-85
2022/05/27 02:01:14;;;;;;;0.00;0.00;;;12.90;99.90;;;;;;5072828;28;20085;-84
2022/05/27 02:03:47;;;;;;;0.15;0.10;;;12.90;99.90;;;;;;5072430;28;20040;-83
2022/05/27 02:06:25;;;;;;;0.00;0.00;;;12.80;99.90;;;;;;5055788;28;20175;-86
2022/05/27 02:08:54;;;;;;;0.10;0.10;;;12.80;99.90;;;;;;5055759;28;20190;-83
2022/05/27 02:11:23;;;;;;;0.00;0.00;;;12.80;99.90;;;;;;5087208;28;20685;-84
2022/05/27 02:13:54;;;;;;;0.00;0.00;;;12.70;99.90;;;;;;5092336;28;20493;-83
2022/05/27 02:16:35;;;;;;;0.03;0.03;;;12.70;99.90;;;;;;5108941;28;20409;-84
2022/05/27 02:19:12;;;;;;;0.63;0.10;;;12.70;99.90;;;;;;5092670;28;20040;-83
2022/05/27 02:21:50;;;;;;;0.00;0.00;;;12.70;99.90;;;;;;5081680;28;20036;-86
2022/05/27 02:24:36;;;;;;;0.00;0.00;;;12.60;99.90;;;;;;5075546;28;20040;-87
2022/05/27 02:27:14;;;;;;;0.10;0.10;;;12.50;99.90;;;;;;5075883;28;20044;-84
2022/05/27 02:29:45;;;;;;;0.00;0.00;;;12.50;99.90;;;;;;5075161;28;20622;-83
2022/05/27 02:32:39;;;;;;;0.00;0.00;;;12.50;99.90;;;;;;5087692;28;20040;-84
2022/05/27 02:35:18;;;;;;;0.10;0.10;;;12.50;99.90;;;;;;5091590;28;20047;-83
2022/05/27 02:37:58;;;;;;;0.13;0.10;;;12.40;99.90;;;;;;5092454;28;20047;-87
2022/05/27 02:40:36;;;;;;;0.10;0.10;;;12.40;99.90;;;;;;5091789;28;20071;-86
2022/05/27 02:43:15;;;;;;;0.10;0.10;;;12.30;99.90;;;;;;5078750;28;20451;-84
2022/05/27 02:45:53;;;;;;;0.00;0.00;;;12.30;99.90;;;;;;5091871;28;20475;-84
2022/05/27 02:48:34;;;;;;;0.00;0.00;;;12.30;99.90;;;;;;5074834;28;20044;-83
2022/05/27 02:51:23;;;;;;;0.10;0.10;;;12.20;99.90;;;;;;5079142;28;20039;-85
2022/05/27 02:54:09;;;;;;;0.00;0.00;;;12.20;99.90;;;;;;5091646;28;20048;-87
2022/05/27 02:57:05;;;;;;;0.10;0.10;;;12.10;99.90;;;;;;5091604;28;20047;-84
2022/05/27 02:59:36;;;;;;;0.00;0.00;;;12.00;99.90;;;;;;5092089;28;20071;-86
2022/05/27 03:02:14;;;;;;;0.00;0.00;;;12.00;99.90;;;;;;5081802;28;20044;-84
2022/05/27 03:04:46;;;;;;;0.10;0.10;;;11.90;99.90;;;;;;5074964;28;20036;-84
2022/05/27 03:07:40;;;;;;;0.10;0.10;;;11.90;99.90;;;;;;5075099;28;20047;-86
2022/05/27 03:10:24;;;;;;;0.03;0.03;;;11.80;99.90;;;;;;5074172;28;20041;-84
2022/05/27 03:13:15;;;;;;;0.00;0.00;;;11.80;99.90;;;;;;5091404;28;20047;-86
2022/05/27 03:16:02;;;;;;;0.10;0.10;;;11.80;99.90;;;;;;5074253;28;20443;-84
2022/05/27 03:18:41;;;;;;;0.15;0.15;;;11.70;99.90;;;;;;5074128;28;20405;-84
2022/05/27 03:21:21;;;;;;;0.00;0.00;;;11.60;99.90;;;;;;5090795;28;20044;-84
2022/05/27 03:24:21;;;;;;;0.10;0.10;;;11.60;99.90;;;;;;5074713;28;20378;-84
2022/05/27 03:27:06;;;;;;;0.10;0.10;;;11.50;99.90;;;;;;5076453;28;20044;-86
2022/05/27 03:30:00;;;;;;;0.00;0.00;;;11.50;99.90;;;;;;5091391;28;20082;-87
2022/05/27 03:32:48;;;;;;;0.10;0.10;;;11.40;99.90;;;;;;5074051;28;20473;-87
2022/05/27 03:35:41;;;;;;;0.10;0.10;;;11.40;99.90;;;;;;5074004;28;20045;-87
2022/05/27 03:38:17;;;;;;;0.05;0.05;;;11.40;99.90;;;;;;5074394;28;20909;-86
2022/05/27 03:41:09;;;;;;;0.10;0.10;;;11.40;99.90;;;;;;5074217;28;20036;-84
2022/05/27 03:43:37;;;;;;;0.10;0.10;;;11.40;99.90;;;;;;5074281;28;20037;-84
2022/05/27 03:46:04;;;;;;;0.00;0.00;;;11.40;99.90;;;;;;5074069;28;20066;-84
2022/05/27 03:48:33;;;;;;;0.00;0.00;;;11.40;99.90;;;;;;5073115;28;20093;-84
2022/05/27 03:51:21;;;;;;;0.10;0.10;;;11.30;99.90;;;;;;5074131;28;20080;-87
2022/05/27 03:54:03;;;;;;;0.03;0.03;;;11.30;99.90;;;;;;5091746;28;20049;-84
2022/05/27 03:56:42;;;;;;;0.00;0.00;;;11.30;99.90;;;;;;5076163;28;20036;-86
2022/05/27 03:59:11;;;;;;;0.00;0.00;;;11.30;99.90;;;;;;5107494;28;20233;-87
2022/05/27 04:01:42;;;;;;;0.20;0.15;;;11.30;99.90;;;;;;5077985;28;20501;-87
2022/05/27 04:04:12;;;;;;;0.00;0.00;;;11.40;99.90;;;;;;5074450;28;20044;-84
2022/05/27 04:06:39;;;;;;;0.00;0.00;;;11.40;99.90;;;;;;5074273;28;20051;-84
2022/05/27 04:09:06;;;;;;;5.22;0.20;;;11.40;99.90;;;;;;5073891;28;20040;-86
2022/05/27 04:11:33;;;;;;;0.00;0.00;;;11.40;99.90;;;;;;5107002;28;20075;-84
2022/05/27 04:14:01;;;;;;;0.00;0.00;;;11.50;99.90;;;;;;5090644;28;20494;-87
2022/05/27 04:16:27;;;;;;;0.00;0.00;;;11.50;99.90;;;;;;5073628;28;20036;-84
2022/05/27 04:18:54;;;;;;;0.10;0.10;;;11.50;99.90;;;;;;5057013;28;20404;-87
2022/05/27 04:21:23;;;;;;;0.00;0.00;;;11.50;99.90;;;;;;5043339;28;20036;-84
2022/05/27 04:23:49;;;;;;;0.00;0.00;;;11.50;99.90;;;;;;5057379;28;20075;-87
2022/05/27 04:26:17;;;;;;;0.10;0.10;;;11.60;99.90;;;;;;5057298;28;20454;-86
2022/05/27 04:28:44;;;;;;;0.00;0.00;;;11.50;99.90;;;;;;5090415;28;20052;-84
2022/05/27 04:31:11;;;;;;;0.10;0.10;;;11.60;99.90;;;;;;5064079;28;20032;-84
2022/05/27 04:33:38;;;;;;;0.00;0.00;;;11.60;99.90;;;;;;5090086;28;20094;-87
2022/05/27 04:36:07;;;;;;;0.10;0.10;;;11.60;99.90;;;;;;5090351;28;20044;-84
2022/05/27 04:38:36;;;;;;;0.03;0.03;;;11.60;99.90;;;;;;5089923;28;20044;-87
2022/05/27 04:41:02;;;;;;;0.00;0.00;;;11.60;99.90;;;;;;5089339;28;20044;-87
2022/05/27 04:43:29;;;;;;;0.00;0.00;;;11.70;99.90;;;;;;5073741;28;20036;-85
2022/05/27 04:45:56;;;;;;;0.00;0.00;;;11.80;99.90;;;;;;5057168;28;20068;-87
2022/05/27 04:48:23;;;;;;;0.00;0.00;;;11.80;99.90;;;;;;5089700;28;20086;-84
2022/05/27 04:50:50;;;;;;;0.00;0.00;;;11.80;99.90;;;;;;5057354;28;20101;-87
2022/05/27 04:53:16;;;;;;;0.28;0.15;;;11.90;99.90;;;;;;5072727;28;20045;-83
2022/05/27 04:55:43;;;;;;;0.10;0.10;;;11.90;99.90;;;;;;5056589;28;20039;-86
2022/05/27 04:58:11;;;;;;;0.00;0.00;;;11.90;99.90;;;;;;5090404;28;20059;-83
2022/05/27 05:00:41;;;;;;;0.10;0.10;;;11.90;99.90;;;;;;5077065;28;20040;-88
2022/05/27 05:03:09;;;;;;;0.10;0.10;;;11.90;99.90;;;;;;5083576;28;20043;-87
2022/05/27 05:05:36;;;;;;;0.10;0.10;;;12.00;99.90;;;;;;5077178;28;20047;-87
2022/05/27 05:08:15;;;;;;;0.00;0.00;;;12.00;99.90;;;;;;5060398;28;20045;-85
2022/05/27 05:10:42;;;;;;;0.03;0.03;;;12.00;99.90;;;;;;5076769;28;20127;-87
2022/05/27 05:13:09;;;;;;;0.03;0.03;;;12.10;99.90;;;;;;5058076;28;20119;-87
2022/05/27 05:15:36;;;;;;;0.00;0.00;;;12.20;99.90;;;;;;5056486;28;20057;-87
2022/05/27 05:18:03;;;;;;;0.00;0.00;;;12.20;99.90;;;;;;5057462;28;20048;-87
2022/05/27 05:20:34;;;;;;;0.17;0.10;;;12.20;99.90;;;;;;5073711;28;20033;-83
2022/05/27 05:23:01;;;;;;;0.00;0.00;;;12.20;99.90;;;;;;5079547;28;20044;-84
2022/05/27 05:25:28;;;;;;;0.00;0.00;;;12.20;99.90;;;;;;5092867;28;20037;-87
2022/05/27 05:27:55;;;;;;;0.00;0.00;;;12.20;99.90;;;;;;5076594;28;20037;-84
2022/05/27 05:30:25;;;;;;;0.13;0.13;;;12.20;99.90;;;;;;5076793;28;20040;-84
2022/05/27 05:32:52;;;;;;;0.03;0.03;;;12.20;99.90;;;;;;5093120;28;20044;-86
2022/05/27 05:35:19;;;;;;;0.00;0.00;;;12.30;99.90;;;;;;5061760;28;20033;-87
2022/05/27 05:37:45;;;;;;;0.10;0.10;;;12.20;99.90;;;;;;5059819;28;20048;-87
2022/05/27 05:40:13;;;;;;;0.00;0.00;;;12.20;99.90;;;;;;5059970;28;20055;-83
2022/05/27 05:42:41;;;;;;;0.00;0.00;;;12.20;99.90;;;;;;5076178;28;20097;-84
2022/05/27 05:45:10;;;;;;;0.00;0.00;;;12.20;99.90;;;;;;5085880;28;20153;-86
2022/05/27 05:47:37;;;;;;;0.10;0.10;;;12.20;99.90;;;;;;5092748;28;20039;-84
2022/05/27 05:50:04;;;;;;;0.00;0.00;;;12.20;99.90;;;;;;5093624;28;20478;-84
2022/05/27 05:52:31;;;;;;;0.00;0.00;;;12.30;99.90;;;;;;5075875;28;20593;-84
2022/05/27 05:54:58;;;;;;;0.00;0.00;;;12.40;99.90;;;;;;5062072;28;20098;-86
2022/05/27 05:57:24;;;;;;;0.00;0.00;;;12.40;99.90;;;;;;5063540;28;20044;-87
2022/05/27 05:59:51;;;;;;;0.10;0.10;;;12.30;99.90;;;;;;5060078;28;20389;-85
2022/05/27 06:02:18;;;;;;;0.10;0.10;;;12.40;99.90;;;;;;5075886;28;20037;-85
2022/05/27 06:04:44;;;;;;;0.10;0.10;;;12.40;99.90;;;;;;5075905;28;20043;-85
2022/05/27 06:07:11;;;;;;;0.05;0.05;;;12.40;99.90;;;;;;5059991;28;20082;-88
2022/05/27 06:09:40;;;;;;;0.00;0.00;;;12.40;99.90;;;;;;5075798;28;20123;-88
2022/05/27 06:12:07;;;;;;;0.03;0.03;;;12.30;99.90;;;;;;5092050;28;20087;-85
2022/05/27 06:14:35;;;;;;;0.10;0.10;;;12.40;99.90;;;;;;5070168;28;20087;-85
2022/05/27 06:17:02;;;;;;;0.28;0.10;;;12.50;99.90;;;;;;5075910;28;20165;-85
2022/05/27 06:19:29;;;;;;;0.10;0.10;;;12.60;99.90;;;;;;5092200;28;20051;-85
2022/05/27 06:21:56;;;;;;;0.00;0.00;;;12.70;99.90;;;;;;5075542;28;20036;-85
2022/05/27 06:24:22;;;;;;;0.00;0.00;;;12.60;99.90;;;;;;5053831;28;20037;-85
2022/05/27 06:26:49;;;;;;;0.00;0.00;;;12.70;99.90;;;;;;5058742;28;20070;-85
2022/05/27 06:34:49;;;;;;;0.10;0.10;;;12.70;99.90;;;;;;5075305;28;20040;-88
2022/05/27 06:37:20;;;;;;;0.00;0.00;;;12.80;99.90;;;;;;5042943;28;20056;-89
2022/05/27 06:39:47;;;;;;;0.10;0.10;;;12.90;99.90;;;;;;5078390;28;20032;-89
2022/05/27 06:42:14;;;;;;;0.10;0.10;;;12.90;99.90;;;;;;5082466;28;20228;-89
2022/05/27 06:44:42;;;;;;;0.00;0.00;;;12.80;99.90;;;;;;5083842;28;20406;-87
2022/05/27 06:47:09;;;;;;;1.08;0.98;;;12.90;99.90;;;;;;5072671;28;20046;-89
2022/05/27 06:49:38;;;;;;;0.10;0.10;;;12.90;99.90;;;;;;5058295;28;20109;-88
2022/05/27 06:52:06;;;;;;;0.10;0.10;;;12.90;99.90;;;;;;5073749;28;20050;-87
2022/05/27 06:54:36;;;;;;;0.10;0.10;;;13.00;99.90;;;;;;5090475;28;20080;-88
2022/05/27 06:57:07;;;;;;;0.00;0.00;;;13.00;99.90;;;;;;5067987;28;20037;-89
2022/05/27 06:59:35;;;;;;;0.00;0.00;;;13.10;99.90;;;;;;5069063;28;20040;-88
2022/05/27 07:02:03;;;;;;;0.10;0.10;;;13.00;99.90;;;;;;5057229;28;20041;-88
2022/05/27 07:04:30;;;;;;;0.00;0.00;;;13.10;99.90;;;;;;5106892;28;20097;-90
2022/05/27 07:06:57;;;;;;;0.10;0.10;;;13.10;99.90;;;;;;5069891;28;20497;-87
2022/05/27 07:09:24;;;;;;;0.00;0.00;;;13.20;99.90;;;;;;5075400;28;20068;-87
2022/05/27 07:11:53;;;;;;;0.03;0.03;;;13.30;99.90;;;;;;5047836;28;20561;-89
2022/05/27 07:14:20;;;;;;;0.00;0.00;;;13.20;99.90;;;;;;5063959;28;20040;-87
2022/05/27 07:16:48;;;;;;;0.10;0.10;;;13.30;99.90;;;;;;5067254;28;20119;-86
2022/05/27 07:19:17;;;;;;;0.15;0.10;;;13.20;99.90;;;;;;5039111;28;20033;-88
2022/05/27 07:21:44;;;;;;;0.10;0.10;;;13.20;99.90;;;;;;5026750;28;20040;-88
2022/05/27 07:24:13;;;;;;;0.03;0.03;;;13.30;99.90;;;;;;5080397;28;20101;-88
2022/05/27 07:26:41;;;;;;;0.00;0.00;;;13.40;99.90;;;;;;5065199;28;20405;-88
2022/05/27 07:29:11;;;;;;;0.38;0.10;;;13.60;99.90;;;;;;5054928;28;20045;-89
2022/05/27 07:31:39;;;;;;;0.10;0.10;;;13.70;99.90;;;;;;5071809;28;20052;-88
2022/05/27 07:34:07;;;;;;;0.10;0.10;;;13.60;99.90;;;;;;5077681;28;20042;-88
2022/05/27 07:36:34;;;;;;;0.10;0.10;;;13.50;99.90;;;;;;5057762;28;20061;-88
2022/05/27 07:39:01;;;;;;;0.00;0.00;;;13.40;99.90;;;;;;5058043;28;20043;-89
2022/05/27 07:41:28;;;;;;;0.00;0.00;;;13.40;99.90;;;;;;5058195;28;20037;-88
2022/05/27 07:43:55;;;;;;;0.00;0.00;;;13.20;99.90;;;;;;5057973;28;20090;-88
2022/05/27 07:46:23;;;;;;;0.20;0.20;;;13.30;99.90;;;;;;5082560;28;20049;-89
2022/05/27 07:48:50;;;;;;;0.10;0.10;;;13.40;99.90;;;;;;5039318;28;20033;-86
2022/05/27 07:51:17;;;;;;;0.10;0.10;;;13.70;99.90;;;;;;5060190;28;20043;-86
2022/05/27 07:53:43;;;;;;;0.05;0.05;;;13.70;99.90;;;;;;5055280;28;20083;-87
2022/05/27 07:56:11;;;;;;;0.00;0.00;;;13.90;99.90;;;;;;5060564;28;20068;-87
2022/05/27 07:58:37;;;;;;;0.10;0.10;;;13.90;99.90;;;;;;5066927;28;20041;-91
2022/05/27 08:01:06;;;;;;;0.10;0.03;;;14.00;99.90;;;;;;5081409;28;20501;-83
2022/05/27 08:03:32;;;;;;;0.10;0.10;;;14.10;99.90;;;;;;5102127;28;20120;-83
2022/05/27 08:06:00;;;;;;;0.10;0.10;;;14.10;99.90;;;;;;5046108;28;20469;-83
2022/05/27 08:08:29;;;;;;;0.00;0.00;;;14.10;99.90;;;;;;5052840;28;20037;-87
2022/05/27 08:10:56;;;;;;;0.20;0.05;;;14.30;99.90;;;;;;5058769;28;20084;-87
2022/05/27 08:13:23;;;;;;;0.10;0.10;;;14.30;99.90;;;;;;5057097;28;20079;-88
2022/05/27 08:15:52;;;;;;;0.05;0.05;;;14.30;99.90;;;;;;5041529;28;20045;-91
2022/05/27 08:18:20;;;;;;;0.10;0.10;;;14.40;99.90;;;;;;5057619;28;20093;-89
2022/05/27 08:20:47;;;;;;;0.00;0.00;;;14.50;99.90;;;;;;5073122;28;20493;-84
2022/05/27 08:23:14;;;;;;;0.10;0.10;;;14.50;99.90;;;;;;5056731;28;20144;-88
2022/05/27 08:25:41;;;;;;;0.00;0.00;;;14.60;99.90;;;;;;5074486;28;20086;-88
2022/05/27 08:28:08;;;;;;;0.30;0.15;;;14.60;99.90;;;;;;5057356;28;20097;-89
2022/05/27 08:30:37;;;;;;;0.10;0.10;;;14.80;99.90;;;;;;5057093;28;20481;-84
2022/05/27 08:33:04;;;;;;;0.00;0.00;;;14.80;99.90;;;;;;5055763;28;20054;-89
2022/05/27 08:38:37;;;;;;;0.47;0.13;;;14.80;99.90;;;;;;5077859;28;20063;-89
2022/05/27 08:41:33;;;;;;;0.10;0.10;;;14.90;99.90;;;;;;5070298;28;20036;-84
2022/05/27 08:44:25;;;;;;;0.22;0.20;;;15.00;99.90;;;;;;5056053;28;20049;-89
2022/05/27 08:47:18;;;;;;;0.10;0.10;;;15.20;99.90;;;;;;5089037;28;20044;-89
2022/05/27 08:49:50;;;;;;;0.08;0.08;;;15.20;99.90;;;;;;5083889;28;20048;-90
2022/05/27 08:52:48;;;;;;;0.22;0.13;;;15.30;99.90;;;;;;5072874;28;20063;-84
2022/05/27 09:01:29;;;;;;;0.10;0.10;;;14.70;99.90;;;;;;5068635;28;20045;-89
2022/05/27 09:04:03;;;;;;;0.10;0.10;;;14.70;99.90;;;;;;5069370;28;20037;-85
2022/05/27 09:06:39;;;;;;;0.22;0.10;;;14.70;99.90;;;;;;5072954;28;20497;-89
2022/05/27 09:09:17;;;;;;;0.10;0.10;;;14.90;99.90;;;;;;5071753;28;20044;-85
2022/05/27 09:12:20;;;;;;;0.00;0.00;;;15.10;99.90;;;;;;5105753;28;20413;-85
2022/05/27 09:15:14;;;;;;;0.00;0.00;;;15.10;99.90;;;;;;5088512;28;20040;-85
2022/05/27 09:17:56;;;;;;;0.22;0.20;;;15.00;99.90;;;;;;5088685;28;20045;-84
2022/05/27 09:20:49;;;;;;;0.00;0.00;;;15.10;99.90;;;;;;5088654;28;20094;-85
2022/05/27 09:23:28;;;;;;;0.00;0.00;;;15.40;99.90;;;;;;5089390;28;20032;-90
2022/05/27 09:25:55;;;;;;;0.10;0.10;;;15.50;99.90;;;;;;5086905;28;20033;-85
2022/05/27 09:28:21;;;;;;;0.10;0.10;;;15.40;99.90;;;;;;5089093;28;20265;-89
2022/05/27 09:30:50;;;;;;;0.00;0.00;;;15.50;99.90;;;;;;5089177;28;20044;-88
2022/05/27 09:33:21;;;;;;;0.00;0.00;;;15.40;99.90;;;;;;5073372;28;20443;-89
2022/05/27 09:35:58;;;;;;;0.10;0.10;;;15.60;99.90;;;;;;5082875;28;20036;-85
2022/05/27 09:38:30;;;;;;;0.38;0.05;;;15.50;99.90;;;;;;5088641;28;20067;-88
2022/05/27 09:41:02;;;;;;;0.00;0.00;;;15.20;99.90;;;;;;5072185;28;20401;-88
2022/05/27 09:43:53;;;;;;;0.13;0.13;;;15.10;99.90;;;;;;5083561;28;20036;-84
2022/05/27 09:46:29;;;;;;;0.00;0.00;;;15.10;99.90;;;;;;5101890;28;20048;-88
2022/05/27 09:48:57;;;;;;;;;;;15.00;99.90;;;;;;5076288;28;20048;-85
2022/05/27 09:51:25;;;;;;;1.20;0.13;;;14.90;99.90;;;;;;5076066;28;19920;-83
2022/05/27 09:54:10;;;;;;;0.00;0.00;;;14.70;99.90;;;;;;5065191;28;20037;-88
2022/05/27 09:56:46;;;;;;;0.10;0.10;;;15.00;99.90;;;;;;5078283;28;20043;-85
2022/05/27 09:59:33;;;;;;;0.00;0.00;;;15.10;99.90;;;;;;5075837;28;20123;-90
2022/05/27 10:02:22;;;;;;;0.00;0.00;;;15.10;99.90;;;;;;5075261;28;20090;-88
2022/05/27 10:04:53;;;;;;;0.00;0.00;;;14.80;99.90;;;;;;5086818;28;20068;-88
2022/05/27 10:07:29;;;;;;;0.00;0.00;;;15.00;99.90;;;;;;5092685;28;20048;-89
2022/05/27 10:09:57;;;;;;;0.30;0.08;;;14.90;99.90;;;;;;5090835;28;20044;-85
2022/05/27 10:12:34;;;;;;;0.00;0.00;;;14.70;99.90;;;;;;5076045;28;20463;-84
2022/05/27 10:15:01;;;;;;;0.00;0.00;;;15.00;99.90;;;;;;5091920;28;20189;-84
2022/05/27 10:17:36;;;;;;;0.08;0.05;;;15.00;99.90;;;;;;5070009;28;20044;-88
2022/05/27 10:20:14;;;;;;;0.10;0.10;;;15.00;99.90;;;;;;5075374;28;20444;-87
2022/05/27 10:22:41;;;;;;;0.52;0.15;;;14.70;99.90;;;;;;5075258;28;20040;-87
2022/05/27 10:25:12;;;;;;;0.10;0.10;;;14.80;99.90;;;;;;5058481;28;20040;-86
2022/05/27 10:27:50;;;;;;;0.75;0.20;;;15.10;99.90;;;;;;5089390;28;20724;-85
2022/05/27 10:30:30;;;;;;;0.15;0.10;;;15.30;99.90;;;;;;5092045;28;20040;-86
2022/05/27 10:33:16;;;;;;;0.47;0.20;;;15.50;99.90;;;;;;5090754;28;20485;-85
2022/05/27 10:35:43;;;;;;;;;;;15.20;99.90;;;;;;5091899;28;20049;-85
2022/05/27 10:38:28;;;;;;;0.08;0.08;;;15.00;99.90;;;;;;5080953;28;19920;-85
2022/05/27 10:41:20;;;;;;;0.47;0.20;;;15.10;99.90;;;;;;5091102;28;20036;-85
2022/05/27 10:43:46;;;;;;;0.10;0.10;;;15.20;99.90;;;;;;5075032;28;20384;-88
2022/05/27 10:46:19;;;;;;;0.15;0.05;;;15.10;99.90;;;;;;5091126;28;20072;-85
2022/05/27 10:48:56;;;;;;;0.15;0.03;;;15.00;99.90;;;;;;5075152;28;20044;-88
2022/05/27 10:51:52;;;;;;;0.63;0.20;;;15.20;99.90;;;;;;5082648;28;20040;-88
2022/05/27 10:54:37;;;;;;;0.10;0.10;;;15.40;99.90;;;;;;5088382;28;20037;-85
2022/05/27 11:03:40;;;;;;;0.00;0.00;;;15.40;99.90;;;;;;5090752;28;20102;-86
2022/05/27 11:06:20;;;;;;;0.17;0.10;;;15.30;99.90;;;;;;5074168;28;20050;-85
2022/05/27 11:09:17;;;;;;;0.05;0.05;;;15.80;99.90;;;;;;5073809;28;20084;-86
2022/05/27 11:11:55;;;;;;;0.03;0.03;;;15.90;99.90;;;;;;5074273;28;20071;-86
2022/05/27 11:17:57;;;;;;;0.25;0.17;;;15.50;99.90;;;;;;5090909;28;20079;-85
2022/05/27 11:20:31;;;;;;;0.00;0.00;;;15.40;99.90;;;;;;5073843;28;20524;-86
2022/05/27 11:22:58;;;;;;;0.08;0.08;;;15.10;99.90;;;;;;5059799;28;20091;-87
2022/05/27 11:25:34;;;;;;;0.38;0.20;;;15.20;99.90;;;;;;5071356;28;20040;-87
2022/05/27 11:28:19;;;;;;;0.30;0.30;;;15.20;99.90;;;;;;5070724;28;20072;-85
2022/05/27 11:31:25;;;;;;;0.22;0.10;;;15.40;99.90;;;;;;5069496;28;20497;-86
2022/05/27 11:34:02;;;;;;;0.10;0.10;;;15.60;99.90;;;;;;5074433;28;20072;-85
2022/05/27 11:37:00;;;;;;;0.00;0.00;;;15.50;99.90;;;;;;5092432;28;20618;-85
2022/05/27 11:39:55;;;;;;;0.00;0.00;;;15.60;99.90;;;;;;5068198;28;20116;-85
2022/05/27 11:43:07;;;;;;;0.00;0.00;;;16.00;99.90;;;;;;5034441;28;20080;-86
2022/05/27 11:45:35;;;;;;;0.10;0.10;;;15.80;99.90;;;;;;5090536;28;20049;-87
2022/05/27 11:48:14;;;;;;;0.00;0.00;;;15.40;99.90;;;;;;5062829;28;20076;-89
2022/05/27 11:51:05;;;;;;;0.10;0.10;;;15.20;99.90;;;;;;5071754;28;20409;-84
2022/05/27 11:53:44;;;;;;;0.00;0.00;;;15.20;99.90;;;;;;5086514;28;20028;-85
2022/05/27 11:56:40;;;;;;;0.15;0.10;;;15.20;99.90;;;;;;5063340;28;20406;-84
2022/05/27 11:59:27;;;;;;;0.85;0.32;;;15.50;99.90;;;;;;5058831;28;20051;-88
2022/05/27 12:02:15;;;;;;;0.00;0.00;;;15.50;99.90;;;;;;5070070;28;20080;-85
2022/05/27 12:04:46;;;;;;;0.25;0.10;;;15.30;99.90;;;;;;5056278;28;20041;-84
2022/05/27 12:07:36;;;;;;;0.40;0.40;;;15.30;99.90;;;;;;5061538;28;20051;-84
2022/05/27 12:10:40;;;;;;;0.10;0.10;;;15.40;99.90;;;;;;5088755;28;20079;-87
2022/05/27 12:13:46;;;;;;;0.17;0.15;;;15.50;99.90;;;;;;5084088;28;20477;-86
2022/05/27 12:16:27;;;;;;;0.00;0.00;;;15.20;99.90;;;;;;5083716;28;20040;-85
2022/05/27 12:18:59;;;;;;;0.00;0.00;;;15.20;99.90;;;;;;5073367;28;20162;-86
2022/05/27 12:21:31;;;;;;;0.17;0.10;;;15.10;99.90;;;;;;5068952;28;20043;-84
2022/05/27 12:24:10;;;;;;;0.10;0.10;;;15.00;99.90;;;;;;5059160;28;20183;-85
2022/05/27 12:26:38;;;;;;;0.00;0.00;;;14.80;99.90;;;;;;5103868;28;20045;-85
2022/05/27 12:29:09;;;;;;;0.00;0.00;;;14.70;99.90;;;;;;5072609;28;20074;-86
2022/05/27 12:31:37;;;;;;;0.10;0.10;;;14.90;99.90;;;;;;5089567;28;20036;-87
2022/05/27 12:34:25;;;;;;;0.00;0.00;;;14.90;99.90;;;;;;5089543;28;20041;-86
2022/05/27 12:36:53;;;;;;;0.22;0.17;;;14.80;99.90;;;;;;5082966;28;20052;-88
2022/05/27 12:39:26;;;;;;;0.00;0.00;;;14.70;99.90;;;;;;5036940;28;20044;-88
2022/05/27 12:42:25;;;;;;;0.00;0.00;;;14.90;99.90;;;;;;5067802;28;20401;-85
2022/05/27 12:44:52;;;;;;;0.10;0.10;;;15.00;99.90;;;;;;5035411;28;20041;-84
2022/05/27 12:47:29;;;;;;;0.35;0.28;;;15.00;99.90;;;;;;5052153;28;20076;-85
2022/05/27 12:50:05;;;;;;;0.00;0.00;;;15.10;99.90;;;;;;5089627;28;20032;-87
2022/05/27 12:52:32;;;;;;;0.05;0.05;;;15.00;99.90;;;;;;5072965;28;20481;-84
2022/05/27 12:55:10;;;;;;;0.17;0.17;;;14.90;99.90;;;;;;5089243;28;20052;-88
2022/05/27 13:03:35;;;;;;;0.00;0.00;;;15.10;99.90;;;;;;5105400;28;20079;-85
2022/05/27 13:06:15;;;;;;;0.45;0.13;;;15.10;99.90;;;;;;5088574;28;20036;-85
2022/05/27 13:08:59;;;;;;;0.17;0.10;;;15.20;99.90;;;;;;5089304;28;20098;-87
2022/05/27 13:11:31;;;;;;;0.25;0.10;;;15.20;99.90;;;;;;5089046;28;20398;-87
2022/05/27 13:14:12;;;;;;;0.10;0.10;;;15.20;99.90;;;;;;5089157;28;20114;-85
2022/05/27 13:17:22;;;;;;;0.40;0.15;;;15.30;99.90;;;;;;5089047;28;20044;-86
2022/05/27 13:19:52;;;;;;;0.25;0.08;;;15.50;99.90;;;;;;5072726;28;20509;-87
2022/05/27 13:22:51;;;;;;;0.00;0.00;;;15.20;99.90;;;;;;5075880;28;20067;-84
2022/05/27 13:25:34;;;;;;;0.00;0.00;;;15.40;99.90;;;;;;5092562;28;20520;-85
2022/05/27 13:28:04;;;;;;;0.00;0.00;;;15.50;99.90;;;;;;5086573;28;20043;-85
2022/05/27 13:31:06;;;;;;;0.20;0.10;;;15.60;99.90;;;;;;5092971;28;20512;-85
2022/05/27 13:33:46;;;;;;;0.52;0.10;;;15.50;99.90;;;;;;5051005;28;20045;-85
2022/05/27 13:36:24;;;;;;;0.00;0.00;;;15.70;99.90;;;;;;5091674;28;20532;-86
2022/05/27 13:39:02;;;;;;;0.00;0.00;;;15.40;99.90;;;;;;5092717;28;20040;-84
2022/05/27 13:41:56;;;;;;;0.05;0.05;;;15.10;99.90;;;;;;5092359;28;20397;-85
2022/05/27 13:44:24;;;;;;;0.00;0.00;;;15.40;99.90;;;;;;5071658;28;20070;-87
2022/05/27 13:46:55;;;;;;;0.10;0.00;;;15.50;99.90;;;;;;5094959;28;20048;-88
2022/05/27 13:49:36;;;;;;;0.05;0.05;;;15.50;99.90;;;;;;5091927;28;20868;-87
2022/05/27 13:52:11;;;;;;;0.00;0.00;;;15.70;99.90;;;;;;5092322;28;20075;-84
2022/05/27 13:54:40;;;;;;;0.00;0.00;;;16.00;99.90;;;;;;5092373;28;20040;-83
2022/05/27 13:57:11;;;;;;;0.00;0.00;;;16.20;99.90;;;;;;5075903;28;20037;-88